Time;durP1;ratioP1;P1;durP2;ratioP2;P2;SDS_P1;SDS_P2;PMS_P1;PMS_P2;Temp;Humidity;BMP_temperature;BMP_pressure;BME280_temperature;BME280_humidity;BME280_pressure;Samples;Min_cycle;Max_cycle;Signal;HPM_P1;HPM_P2
2023/11/03 00:00:11;;;;;;;;;;;7.60;99.90;;;;;;5091534;28;20113;-79
2023/11/03 00:02:38;;;;;;;0.10;0.10;;;7.60;99.90;;;;;;5083701;28;19920;-77
2023/11/03 00:05:08;;;;;;;0.10;0.10;;;7.50;99.90;;;;;;5085480;28;20290;-81
2023/11/03 00:07:35;;;;;;;0.10;0.10;;;7.50;99.90;;;;;;5088221;28;20025;-77
2023/11/03 00:10:05;;;;;;;0.10;0.10;;;7.50;99.90;;;;;;5088918;28;20115;-77
2023/11/03 00:12:32;;;;;;;0.10;0.10;;;7.60;99.90;;;;;;5067920;28;20036;-80
2023/11/03 00:14:58;;;;;;;;;;;7.60;99.90;;;;;;5086354;28;20648;-79
2023/11/03 00:17:24;;;;;;;0.10;0.10;;;7.60;99.90;;;;;;5090293;28;20375;-77
2023/11/03 00:19:50;;;;;;;0.10;0.10;;;7.50;99.90;;;;;;5085431;28;20039;-80
2023/11/03 00:22:17;;;;;;;0.10;0.10;;;7.50;99.90;;;;;;5088283;28;20509;-79
2023/11/03 00:24:43;;;;;;;0.20;0.20;;;7.50;99.90;;;;;;5097881;28;20039;-78
2023/11/03 00:27:09;;;;;;;0.00;0.00;;;7.40;99.90;;;;;;5090419;28;20028;-78
2023/11/03 00:29:34;;;;;;;0.10;0.10;;;7.40;99.90;;;;;;5091169;28;20034;-80
2023/11/03 00:32:00;;;;;;;0.10;0.10;;;7.30;99.90;;;;;;5088931;28;20036;-78
2023/11/03 00:34:26;;;;;;;0.10;0.10;;;7.30;99.90;;;;;;5096544;28;20058;-80
2023/11/03 00:36:52;;;;;;;1.55;0.90;;;7.40;99.90;;;;;;5100631;28;20077;-80
2023/11/03 00:39:18;;;;;;;0.10;0.10;;;7.50;99.90;;;;;;5099575;28;20023;-81
2023/11/03 00:41:49;;;;;;;0.08;0.08;;;7.40;99.90;;;;;;5090288;28;20139;-82
2023/11/03 00:44:17;;;;;;;0.10;0.10;;;7.30;99.90;;;;;;5098100;28;20043;-80
2023/11/03 00:46:44;;;;;;;0.85;0.85;;;7.10;99.90;;;;;;5089232;28;20024;-80
2023/11/03 00:49:12;;;;;;;0.10;0.10;;;7.20;99.90;;;;;;5090844;28;20028;-81
2023/11/03 00:51:38;;;;;;;1.13;0.73;;;7.10;99.90;;;;;;5089018;28;20028;-80
2023/11/03 00:54:04;;;;;;;0.10;0.10;;;7.20;99.90;;;;;;5091827;28;20028;-78
2023/11/03 00:56:30;;;;;;;0.10;0.10;;;7.40;99.90;;;;;;5088581;28;20040;-86
2023/11/03 00:58:56;;;;;;;0.10;0.10;;;7.40;99.90;;;;;;5093775;28;20052;-77
2023/11/03 01:01:23;;;;;;;0.10;0.10;;;7.40;99.90;;;;;;5074894;28;20039;-80
2023/11/03 01:03:49;;;;;;;0.10;0.10;;;7.50;99.90;;;;;;5094378;28;20066;-78
2023/11/03 01:06:15;;;;;;;0.10;0.10;;;7.50;99.90;;;;;;5093447;28;20039;-82
2023/11/03 01:08:40;;;;;;;0.10;0.10;;;7.40;99.90;;;;;;5093552;28;20280;-80
2023/11/03 01:11:09;;;;;;;0.10;0.10;;;7.30;99.90;;;;;;5096537;28;20070;-77
2023/11/03 01:13:39;;;;;;;0.10;0.10;;;7.40;99.90;;;;;;5096179;28;20098;-80
2023/11/03 01:16:09;;;;;;;0.10;0.10;;;7.30;99.90;;;;;;5094794;28;20542;-80
2023/11/03 01:18:35;;;;;;;0.10;0.10;;;7.30;99.90;;;;;;5094532;28;20032;-82
2023/11/03 01:21:09;;;;;;;0.10;0.10;;;7.30;99.90;;;;;;5071691;28;20036;-77
2023/11/03 01:23:35;;;;;;;0.10;0.10;;;7.30;99.90;;;;;;5091841;28;20078;-81
2023/11/03 01:26:03;;;;;;;0.10;0.10;;;7.30;99.90;;;;;;5076140;28;20144;-79
2023/11/03 01:28:30;;;;;;;0.10;0.10;;;7.20;99.90;;;;;;5094299;28;20391;-78
2023/11/03 01:30:57;;;;;;;0.10;0.10;;;7.30;99.90;;;;;;5089985;28;20031;-76
2023/11/03 01:33:22;;;;;;;0.10;0.10;;;7.30;99.90;;;;;;5069238;28;20853;-78
2023/11/03 01:35:48;;;;;;;0.03;0.03;;;7.30;99.90;;;;;;5091739;28;21160;-78
2023/11/03 01:38:14;;;;;;;0.28;0.28;;;7.30;99.90;;;;;;5091396;28;20019;-78
2023/11/03 01:40:40;;;;;;;0.10;0.10;;;7.40;99.90;;;;;;5092171;28;20184;-80
2023/11/03 01:43:06;;;;;;;0.10;0.10;;;7.40;99.90;;;;;;5089023;28;20028;-78
2023/11/03 01:45:32;;;;;;;0.10;0.10;;;7.40;99.90;;;;;;5096001;28;20075;-79
2023/11/03 01:47:58;;;;;;;0.17;0.17;;;7.40;99.90;;;;;;5095958;28;20032;-78
2023/11/03 01:50:24;;;;;;;0.10;0.10;;;7.40;99.90;;;;;;5093250;28;20054;-78
2023/11/03 01:52:50;;;;;;;0.10;0.10;;;7.40;99.90;;;;;;5098078;28;20353;-77
2023/11/03 01:55:16;;;;;;;0.10;0.10;;;7.30;99.90;;;;;;5093078;28;20698;-77
2023/11/03 01:57:43;;;;;;;0.10;0.10;;;7.30;99.90;;;;;;5096412;28;20111;-77
2023/11/03 02:00:13;;;;;;;0.10;0.10;;;7.40;99.90;;;;;;5094914;28;20054;-77
2023/11/03 02:02:39;;;;;;;0.10;0.10;;;7.40;99.90;;;;;;5102632;28;20361;-78
2023/11/03 02:05:06;;;;;;;0.10;0.10;;;7.40;99.90;;;;;;5098560;28;20093;-81
2023/11/03 02:07:32;;;;;;;0.10;0.10;;;7.40;99.90;;;;;;5106152;27;20289;-78
2023/11/03 02:09:58;;;;;;;0.10;0.10;;;7.40;99.90;;;;;;5099214;28;20482;-79
2023/11/03 02:12:23;;;;;;;0.10;0.10;;;7.50;99.90;;;;;;5079928;28;20114;-78
2023/11/03 02:14:51;;;;;;;0.10;0.10;;;7.40;99.90;;;;;;5103632;28;20023;-78
2023/11/03 02:17:20;;;;;;;0.10;0.10;;;7.50;99.90;;;;;;5104097;28;20023;-79
2023/11/03 02:19:46;;;;;;;0.10;0.10;;;7.40;99.90;;;;;;5075353;28;20165;-81
2023/11/03 02:22:12;;;;;;;0.10;0.10;;;7.40;99.90;;;;;;5092715;28;20028;-78
2023/11/03 02:24:38;;;;;;;0.10;0.10;;;7.30;99.90;;;;;;5101437;28;20066;-81
2023/11/03 02:27:03;;;;;;;0.10;0.10;;;7.50;99.90;;;;;;5084808;28;20031;-80
2023/11/03 02:29:29;;;;;;;0.10;0.10;;;7.40;99.90;;;;;;5089620;28;20020;-76
2023/11/03 02:31:55;;;;;;;0.10;0.10;;;7.50;99.90;;;;;;5095431;28;20497;-80
2023/11/03 02:34:21;;;;;;;0.10;0.10;;;7.40;99.90;;;;;;5102277;28;20089;-77
2023/11/03 02:36:46;;;;;;;0.10;0.10;;;7.40;99.90;;;;;;5096621;28;20034;-77
2023/11/03 02:39:12;;;;;;;0.10;0.10;;;7.50;99.90;;;;;;5094442;28;20035;-80
2023/11/03 02:41:38;;;;;;;0.10;0.10;;;7.60;99.90;;;;;;5097763;28;20524;-80
2023/11/03 02:44:04;;;;;;;0.10;0.10;;;7.40;99.90;;;;;;5100051;28;20142;-77
2023/11/03 02:46:30;;;;;;;0.43;0.43;;;7.40;99.90;;;;;;5094053;28;20078;-75
2023/11/03 02:48:56;;;;;;;0.10;0.10;;;7.40;99.90;;;;;;5100388;28;20032;-79
2023/11/03 02:51:22;;;;;;;0.10;0.10;;;7.30;99.90;;;;;;5091827;28;20585;-81
2023/11/03 02:53:47;;;;;;;0.10;0.10;;;7.40;99.90;;;;;;5085397;28;20030;-80
2023/11/03 02:56:23;;;;;;;0.00;0.00;;;7.40;99.90;;;;;;5100764;28;20032;-80
2023/11/03 02:58:49;;;;;;;0.10;0.10;;;7.30;99.90;;;;;;5097242;28;20028;-76
2023/11/03 03:01:15;;;;;;;0.10;0.10;;;7.50;99.90;;;;;;5088880;28;20040;-81
2023/11/03 03:03:41;;;;;;;0.10;0.10;;;7.50;99.90;;;;;;5099578;28;20039;-77
2023/11/03 03:06:07;;;;;;;0.10;0.10;;;7.50;99.90;;;;;;5102983;27;20279;-76
2023/11/03 03:08:33;;;;;;;0.10;0.10;;;7.40;99.90;;;;;;5094125;28;20712;-80
2023/11/03 03:11:00;;;;;;;1.75;1.65;;;7.50;99.90;;;;;;5095869;28;20035;-76
2023/11/03 03:13:26;;;;;;;0.10;0.10;;;7.50;99.90;;;;;;5098792;28;20028;-85
2023/11/03 03:15:52;;;;;;;0.10;0.10;;;7.40;99.90;;;;;;5100429;28;20038;-76
2023/11/03 03:18:17;;;;;;;0.10;0.10;;;7.40;99.90;;;;;;5103014;28;20469;-79
2023/11/03 03:20:44;;;;;;;0.98;0.98;;;7.40;99.90;;;;;;5098896;28;20092;-80
2023/11/03 03:23:09;;;;;;;0.10;0.10;;;7.40;99.90;;;;;;5100608;27;20027;-80
2023/11/03 03:25:35;;;;;;;0.10;0.10;;;7.50;99.90;;;;;;5093995;28;20486;-79
2023/11/03 03:28:01;;;;;;;0.10;0.10;;;7.50;99.90;;;;;;5095869;28;20054;-83
2023/11/03 03:30:26;;;;;;;0.10;0.10;;;7.60;99.90;;;;;;5096245;28;20752;-76
2023/11/03 03:32:52;;;;;;;0.10;0.10;;;7.50;99.90;;;;;;5101692;28;20073;-77
2023/11/03 03:35:18;;;;;;;0.10;0.10;;;7.60;99.90;;;;;;5102448;28;20043;-80
2023/11/03 03:37:43;;;;;;;0.10;0.10;;;7.50;99.90;;;;;;5098384;28;20038;-78
2023/11/03 03:40:12;;;;;;;0.10;0.10;;;7.60;99.90;;;;;;5100004;28;20905;-77
2023/11/03 03:42:38;;;;;;;0.10;0.10;;;7.50;99.90;;;;;;5098889;28;20100;-79
2023/11/03 03:45:04;;;;;;;0.10;0.10;;;7.50;99.90;;;;;;5103876;28;20470;-77
2023/11/03 03:47:30;;;;;;;0.10;0.10;;;7.50;99.90;;;;;;5090670;28;20114;-79
2023/11/03 03:49:56;;;;;;;0.10;0.10;;;7.40;99.90;;;;;;5103634;28;20794;-80
2023/11/03 03:52:23;;;;;;;0.10;0.10;;;7.50;99.90;;;;;;5102828;28;20035;-76
2023/11/03 03:54:48;;;;;;;0.10;0.10;;;7.40;99.90;;;;;;5102634;28;20028;-79
2023/11/03 03:57:14;;;;;;;0.10;0.10;;;7.50;99.90;;;;;;5100666;28;20024;-77
2023/11/03 03:59:40;;;;;;;0.10;0.10;;;7.60;99.90;;;;;;5104744;28;20105;-80
2023/11/03 04:02:05;;;;;;;0.10;0.10;;;7.60;99.90;;;;;;5110304;27;20081;-78
2023/11/03 04:04:31;;;;;;;0.20;0.20;;;7.40;99.90;;;;;;5102593;28;20039;-77
2023/11/03 04:06:57;;;;;;;0.10;0.10;;;7.40;99.90;;;;;;5089031;28;20039;-77
2023/11/03 04:09:25;;;;;;;0.10;0.10;;;7.50;99.90;;;;;;5104754;28;20024;-79
2023/11/03 04:11:50;;;;;;;0.10;0.10;;;7.50;99.90;;;;;;5106087;28;20504;-76
2023/11/03 04:14:16;;;;;;;0.10;0.10;;;7.60;99.90;;;;;;5106957;28;20024;-78
2023/11/03 04:16:42;;;;;;;0.10;0.10;;;7.50;99.90;;;;;;5098440;28;20023;-79
2023/11/03 04:19:07;;;;;;;0.10;0.10;;;7.50;99.90;;;;;;5087114;28;20027;-79
2023/11/03 04:21:33;;;;;;;0.10;0.10;;;7.60;99.90;;;;;;5106725;28;20102;-80
2023/11/03 04:23:59;;;;;;;0.10;0.10;;;7.40;99.90;;;;;;5105086;28;20019;-77
2023/11/03 04:26:25;;;;;;;0.10;0.10;;;7.50;99.90;;;;;;5107555;28;20739;-76
2023/11/03 04:28:51;;;;;;;0.10;0.10;;;7.50;99.90;;;;;;5106479;28;20107;-79
2023/11/03 04:31:16;;;;;;;0.10;0.10;;;7.50;99.90;;;;;;5100326;28;20555;-79
2023/11/03 04:33:43;;;;;;;0.10;0.10;;;7.50;99.90;;;;;;5105453;28;20043;-78
2023/11/03 04:36:10;;;;;;;0.10;0.10;;;7.40;99.90;;;;;;5098192;28;20369;-79
2023/11/03 04:38:36;;;;;;;0.10;0.10;;;7.40;99.90;;;;;;5106580;28;20031;-83
2023/11/03 04:41:01;;;;;;;0.10;0.10;;;7.40;99.90;;;;;;5104166;28;20027;-80
2023/11/03 04:43:27;;;;;;;0.10;0.10;;;7.50;99.90;;;;;;5097374;28;20024;-78
2023/11/03 04:45:53;;;;;;;0.10;0.10;;;7.40;99.90;;;;;;5081778;28;20065;-79
2023/11/03 04:48:19;;;;;;;0.10;0.10;;;7.40;99.90;;;;;;5095739;28;20474;-83
2023/11/03 04:50:46;;;;;;;0.10;0.10;;;7.40;99.90;;;;;;5093928;27;20042;-80
2023/11/03 04:53:12;;;;;;;0.10;0.10;;;7.40;99.90;;;;;;5090201;28;20565;-80
2023/11/03 04:55:38;;;;;;;0.10;0.10;;;7.40;99.90;;;;;;5094011;28;20106;-78
2023/11/03 04:58:03;;;;;;;0.05;0.05;;;7.50;99.90;;;;;;5090683;27;20020;-79
2023/11/03 05:00:29;;;;;;;0.10;0.10;;;7.60;99.90;;;;;;5066452;28;20076;-76
2023/11/03 05:02:55;;;;;;;0.10;0.10;;;7.60;99.90;;;;;;5082610;28;20397;-79
2023/11/03 05:05:21;;;;;;;0.10;0.10;;;7.60;99.90;;;;;;5066390;28;20032;-80
2023/11/03 05:07:46;;;;;;;0.10;0.10;;;7.50;99.90;;;;;;5088780;28;20020;-78
2023/11/03 05:10:13;;;;;;;0.10;0.10;;;7.50;99.90;;;;;;5081761;28;20395;-79
2023/11/03 05:12:39;;;;;;;0.10;0.10;;;7.40;99.90;;;;;;5077074;28;20032;-77
2023/11/03 05:15:07;;;;;;;0.10;0.10;;;7.50;99.90;;;;;;5059277;28;20060;-80
2023/11/03 05:17:33;;;;;;;0.10;0.10;;;7.40;99.90;;;;;;5071230;28;20732;-76
2023/11/03 05:19:58;;;;;;;0.10;0.10;;;7.40;99.90;;;;;;5073489;28;20039;-84
2023/11/03 05:22:24;;;;;;;0.10;0.10;;;7.50;99.90;;;;;;5073368;28;20024;-77
2023/11/03 05:24:50;;;;;;;0.10;0.10;;;7.50;99.90;;;;;;5084789;28;20517;-77
2023/11/03 05:27:15;;;;;;;0.10;0.10;;;7.50;99.90;;;;;;5075926;28;20040;-79
2023/11/03 05:29:41;;;;;;;0.10;0.10;;;7.50;99.90;;;;;;5072873;28;20032;-79
2023/11/03 05:32:07;;;;;;;0.10;0.10;;;7.50;99.90;;;;;;5049810;28;20125;-79
2023/11/03 05:34:34;;;;;;;0.10;0.10;;;7.60;99.90;;;;;;5071277;28;20029;-78
2023/11/03 05:37:00;;;;;;;0.10;0.10;;;7.50;99.90;;;;;;5081286;28;20027;-83
2023/11/03 05:39:26;;;;;;;0.10;0.10;;;7.60;99.90;;;;;;5069931;28;20024;-79
2023/11/03 05:41:51;;;;;;;0.10;0.10;;;7.60;99.90;;;;;;5075624;28;20586;-80
2023/11/03 05:44:17;;;;;;;0.10;0.10;;;7.50;99.90;;;;;;5077464;28;20043;-83
2023/11/03 05:46:43;;;;;;;0.10;0.10;;;7.40;99.90;;;;;;5071837;28;20032;-82
2023/11/03 05:49:09;;;;;;;0.65;0.45;;;7.40;99.90;;;;;;5078507;28;20035;-80
2023/11/03 05:51:35;;;;;;;0.10;0.10;;;7.40;99.90;;;;;;5078119;28;20782;-80
2023/11/03 05:54:01;;;;;;;0.55;0.55;;;7.10;99.90;;;;;;5079998;28;20650;-80
2023/11/03 05:56:27;;;;;;;0.10;0.10;;;7.00;99.90;;;;;;5082645;28;20038;-81
2023/11/03 05:58:53;;;;;;;0.85;0.85;;;7.00;99.90;;;;;;5080476;28;20027;-82
2023/11/03 06:01:18;;;;;;;0.10;0.10;;;7.00;99.90;;;;;;5093772;28;20035;-80
2023/11/03 06:03:45;;;;;;;0.10;0.10;;;7.10;99.90;;;;;;5102794;28;20547;-79
2023/11/03 06:06:11;;;;;;;0.10;0.10;;;7.20;99.90;;;;;;5086438;28;20052;-79
2023/11/03 06:08:37;;;;;;;0.10;0.10;;;7.10;99.90;;;;;;5099678;27;20032;-78
2023/11/03 06:11:03;;;;;;;0.10;0.10;;;7.10;99.90;;;;;;5078143;27;20028;-80
2023/11/03 06:13:28;;;;;;;0.10;0.10;;;7.00;99.90;;;;;;5088929;28;20019;-80
2023/11/03 06:15:54;;;;;;;0.10;0.10;;;6.90;99.90;;;;;;5078607;28;20028;-79
2023/11/03 06:18:19;;;;;;;0.10;0.10;;;7.00;99.90;;;;;;5094510;28;20089;-79
2023/11/03 06:20:45;;;;;;;0.65;0.65;;;7.10;99.90;;;;;;5098517;28;20127;-80
2023/11/03 06:23:11;;;;;;;0.30;0.30;;;7.00;99.90;;;;;;5092299;28;20166;-79
2023/11/03 06:25:37;;;;;;;0.10;0.10;;;7.00;99.90;;;;;;5102469;28;20604;-78
2023/11/03 06:28:02;;;;;;;0.10;0.10;;;7.00;99.90;;;;;;5103388;28;20120;-80
2023/11/03 06:30:28;;;;;;;0.30;0.30;;;7.00;99.90;;;;;;5089918;28;20030;-80
2023/11/03 06:32:54;;;;;;;0.30;0.30;;;6.90;99.90;;;;;;5085018;28;20019;-80
2023/11/03 06:35:20;;;;;;;0.10;0.10;;;6.90;99.90;;;;;;5101276;28;20028;-80
2023/11/03 06:37:45;;;;;;;0.10;0.10;;;7.10;99.90;;;;;;5102719;27;20016;-80
2023/11/03 06:40:11;;;;;;;0.10;0.10;;;7.20;99.90;;;;;;5094126;28;20493;-80
2023/11/03 06:42:40;;;;;;;0.10;0.10;;;7.20;99.90;;;;;;5092516;28;20028;-80
2023/11/03 06:45:09;;;;;;;0.10;0.10;;;7.20;99.90;;;;;;5088982;28;20036;-81
2023/11/03 06:47:36;;;;;;;0.10;0.10;;;7.30;99.90;;;;;;5092242;28;20477;-81
2023/11/03 06:50:04;;;;;;;0.10;0.10;;;7.30;99.90;;;;;;5084448;28;20055;-79
2023/11/03 06:52:30;;;;;;;0.10;0.10;;;7.30;99.90;;;;;;5084581;28;20041;-80
2023/11/03 06:54:59;;;;;;;0.10;0.10;;;7.30;99.90;;;;;;5096138;28;20432;-83
2023/11/03 06:57:24;;;;;;;0.10;0.10;;;7.40;99.90;;;;;;5093249;28;20132;-83
2023/11/03 06:59:50;;;;;;;0.10;0.10;;;7.40;99.90;;;;;;5092495;28;20807;-80
2023/11/03 07:02:16;;;;;;;0.17;0.17;;;7.40;99.90;;;;;;5102456;28;20027;-83
2023/11/03 07:04:44;;;;;;;0.10;0.10;;;7.40;99.90;;;;;;5098055;28;20102;-80
2023/11/03 07:07:10;;;;;;;0.10;0.10;;;7.50;99.90;;;;;;5102247;28;20056;-79
2023/11/03 07:09:36;;;;;;;;;;;7.40;99.90;;;;;;5089784;28;20120;-80
2023/11/03 07:12:02;;;;;;;0.10;0.10;;;7.70;99.90;;;;;;5101272;27;20366;-80
2023/11/03 07:14:28;;;;;;;0.10;0.10;;;7.70;99.90;;;;;;5090652;28;20502;-82
2023/11/03 07:16:56;;;;;;;0.10;0.10;;;7.70;99.90;;;;;;5100776;28;20045;-79
2023/11/03 07:19:22;;;;;;;0.10;0.10;;;7.70;99.90;;;;;;5098787;28;20162;-80
2023/11/03 07:21:49;;;;;;;0.45;0.45;;;7.70;99.90;;;;;;5097761;28;20827;-80
2023/11/03 07:24:16;;;;;;;;;;;7.40;99.90;;;;;;5077832;28;20245;-79
2023/11/03 07:26:43;;;;;;;0.10;0.10;;;7.50;99.90;;;;;;5099901;28;19911;-79
2023/11/03 07:29:09;;;;;;;0.10;0.10;;;7.40;99.90;;;;;;5095853;28;20742;-80
2023/11/03 07:31:35;;;;;;;0.10;0.10;;;7.50;99.90;;;;;;5082119;28;20292;-80
2023/11/03 07:34:03;;;;;;;0.43;0.43;;;7.50;99.90;;;;;;5087728;28;20054;-81
2023/11/03 07:36:29;;;;;;;0.17;0.17;;;7.50;99.90;;;;;;5093069;28;20024;-79
2023/11/03 07:38:54;;;;;;;0.80;0.80;;;7.60;99.90;;;;;;5095138;28;20814;-83
2023/11/03 07:41:22;;;;;;;0.10;0.10;;;7.60;99.90;;;;;;5106276;28;20047;-80
2023/11/03 07:43:47;;;;;;;0.10;0.10;;;7.50;99.90;;;;;;5105775;28;20058;-84
2023/11/03 07:46:13;;;;;;;0.10;0.10;;;7.60;99.90;;;;;;5107286;28;20775;-81
2023/11/03 07:48:39;;;;;;;0.10;0.10;;;7.80;99.90;;;;;;5106733;28;20030;-83
2023/11/03 07:51:05;;;;;;;0.10;0.10;;;8.10;99.90;;;;;;5105410;28;20055;-82
2023/11/03 07:53:31;;;;;;;0.10;0.10;;;8.30;99.90;;;;;;5097391;28;20024;-80
2023/11/03 07:55:58;;;;;;;0.10;0.10;;;8.00;99.90;;;;;;5098122;28;20471;-80
2023/11/03 07:58:25;;;;;;;0.10;0.10;;;7.90;99.90;;;;;;5107706;28;20421;-82
2023/11/03 08:00:50;;;;;;;0.10;0.10;;;8.00;99.90;;;;;;5087039;28;20091;-82
2023/11/03 08:03:16;;;;;;;0.10;0.10;;;8.00;99.90;;;;;;5107828;28;20091;-82
2023/11/03 08:05:42;;;;;;;0.10;0.10;;;8.10;99.90;;;;;;5106796;28;20063;-80
2023/11/03 08:08:10;;;;;;;0.10;0.10;;;8.40;99.90;;;;;;5099050;28;20066;-82
2023/11/03 08:10:36;;;;;;;0.10;0.10;;;8.40;99.90;;;;;;5103537;28;20375;-86
2023/11/03 08:13:01;;;;;;;0.10;0.10;;;8.40;99.90;;;;;;5100586;28;20483;-80
2023/11/03 08:15:27;;;;;;;0.10;0.10;;;8.40;99.90;;;;;;5097710;28;20152;-80
2023/11/03 08:17:53;;;;;;;0.10;0.10;;;8.60;99.90;;;;;;5096213;28;20112;-81
2023/11/03 08:20:19;;;;;;;0.05;0.05;;;9.00;99.90;;;;;;5088023;28;20083;-80
2023/11/03 08:22:48;;;;;;;0.10;0.10;;;8.90;99.90;;;;;;5096181;28;20027;-78
2023/11/03 08:25:13;;;;;;;0.10;0.10;;;8.80;99.90;;;;;;5094176;28;20055;-77
2023/11/03 08:27:39;;;;;;;0.10;0.10;;;8.90;99.90;;;;;;5097881;28;20107;-76
2023/11/03 08:30:08;;;;;;;0.10;0.10;;;8.50;99.90;;;;;;5101244;28;20188;-77
2023/11/03 08:32:35;;;;;;;0.10;0.10;;;8.20;99.90;;;;;;5096944;28;20032;-78
2023/11/03 08:35:02;;;;;;;;;;;8.00;99.90;;;;;;5095538;28;20032;-77
2023/11/03 08:37:28;;;;;;;0.10;0.10;;;7.90;99.90;;;;;;5101558;28;19912;-77
2023/11/03 08:39:54;;;;;;;0.10;0.10;;;7.80;99.90;;;;;;5096418;28;20379;-76
2023/11/03 08:42:21;;;;;;;0.10;0.10;;;7.80;99.90;;;;;;5100259;28;20078;-78
2023/11/03 08:44:47;;;;;;;0.10;0.10;;;7.70;99.90;;;;;;5096596;27;20561;-78
2023/11/03 08:47:14;;;;;;;0.10;0.10;;;7.70;99.90;;;;;;5104529;27;20052;-76
2023/11/03 08:49:40;;;;;;;0.10;0.10;;;7.60;99.90;;;;;;5103485;28;20428;-77
2023/11/03 08:52:07;;;;;;;0.10;0.10;;;7.60;99.90;;;;;;5096512;28;20030;-77
2023/11/03 08:54:33;;;;;;;0.10;0.10;;;7.60;99.90;;;;;;5086955;27;20020;-78
2023/11/03 08:56:58;;;;;;;0.10;0.10;;;7.70;99.90;;;;;;5095649;28;20040;-77
2023/11/03 08:59:24;;;;;;;0.10;0.10;;;7.80;99.90;;;;;;5097327;28;20052;-78
2023/11/03 09:01:53;;;;;;;0.10;0.10;;;7.90;99.90;;;;;;5096059;28;20127;-78
2023/11/03 09:04:20;;;;;;;0.68;0.68;;;7.90;99.90;;;;;;5085935;28;20032;-79
2023/11/03 09:06:45;;;;;;;0.10;0.10;;;7.70;99.90;;;;;;5095570;28;20669;-79
2023/11/03 09:09:11;;;;;;;0.10;0.10;;;7.80;99.90;;;;;;5090290;28;20028;-77
2023/11/03 09:11:36;;;;;;;0.10;0.10;;;8.00;99.90;;;;;;5092202;28;20027;-77
2023/11/03 09:14:06;;;;;;;0.10;0.10;;;8.30;99.90;;;;;;5092185;28;20036;-77
2023/11/03 09:16:32;;;;;;;0.10;0.10;;;8.60;99.90;;;;;;5093765;28;20020;-78
2023/11/03 09:18:59;;;;;;;0.10;0.10;;;8.60;99.90;;;;;;5098415;28;20035;-78
2023/11/03 09:21:25;;;;;;;0.10;0.10;;;8.90;99.90;;;;;;5099698;28;20411;-77
2023/11/03 09:23:51;;;;;;;0.05;0.05;;;9.10;99.90;;;;;;5094324;28;20577;-78
2023/11/03 09:26:17;;;;;;;0.10;0.10;;;8.90;99.90;;;;;;5087116;28;20030;-77
2023/11/03 09:28:44;;;;;;;0.10;0.10;;;8.60;99.90;;;;;;5097773;28;20031;-78
2023/11/03 09:31:10;;;;;;;0.10;0.10;;;8.50;99.90;;;;;;5085836;28;20054;-78
2023/11/03 09:33:36;;;;;;;0.10;0.10;;;8.40;99.90;;;;;;5092167;28;20035;-79
2023/11/03 09:36:05;;;;;;;0.10;0.10;;;8.40;99.90;;;;;;5092368;28;20027;-78
2023/11/03 09:38:32;;;;;;;0.10;0.10;;;8.40;99.90;;;;;;5086239;28;20036;-77
2023/11/03 09:40:58;;;;;;;0.10;0.10;;;8.60;99.90;;;;;;5102481;28;20024;-77
2023/11/03 09:43:24;;;;;;;0.10;0.10;;;8.30;99.90;;;;;;5099039;28;20024;-78
2023/11/03 09:45:49;;;;;;;0.10;0.10;;;8.50;99.90;;;;;;5085452;28;20862;-77
2023/11/03 09:48:19;;;;;;;0.10;0.10;;;8.60;99.90;;;;;;5095185;28;20502;-78
2023/11/03 09:50:47;;;;;;;0.10;0.10;;;8.50;99.90;;;;;;5066982;28;20028;-78
2023/11/03 09:53:19;;;;;;;0.08;0.08;;;8.60;99.90;;;;;;5086044;28;20020;-78
2023/11/03 09:55:44;;;;;;;0.10;0.10;;;8.50;99.90;;;;;;5070116;28;20035;-77
2023/11/03 09:58:10;;;;;;;0.00;0.00;;;8.30;99.90;;;;;;5088931;28;20028;-78
2023/11/03 10:00:37;;;;;;;0.10;0.10;;;8.10;99.90;;;;;;5070876;28;20147;-78
2023/11/03 10:03:04;;;;;;;0.20;0.20;;;8.20;99.90;;;;;;5049719;28;20055;-78
2023/11/03 10:05:30;;;;;;;0.20;0.20;;;8.20;99.90;;;;;;5050253;28;20119;-78
2023/11/03 10:08:08;;;;;;;0.10;0.10;;;8.40;99.90;;;;;;5074168;28;20136;-78
2023/11/03 10:10:36;;;;;;;0.10;0.10;;;8.40;99.90;;;;;;5069511;28;20614;-77
2023/11/03 10:13:05;;;;;;;0.15;0.15;;;8.50;99.90;;;;;;5064184;28;20099;-77
2023/11/03 10:15:32;;;;;;;0.10;0.10;;;8.60;99.90;;;;;;5068375;28;20033;-77
2023/11/03 10:17:58;;;;;;;0.38;0.38;;;8.50;99.90;;;;;;5068133;28;20043;-77
2023/11/03 10:20:27;;;;;;;0.10;0.10;;;8.30;99.90;;;;;;5064614;28;20089;-78
2023/11/03 10:22:53;;;;;;;0.10;0.10;;;8.30;99.90;;;;;;5055879;28;20029;-78
2023/11/03 10:25:19;;;;;;;0.10;0.10;;;8.20;99.90;;;;;;5057349;28;20029;-77
2023/11/03 10:27:48;;;;;;;0.10;0.10;;;8.20;99.90;;;;;;5069900;28;20024;-78
2023/11/03 10:30:15;;;;;;;0.10;0.10;;;8.30;99.90;;;;;;5063795;28;20024;-80
2023/11/03 10:32:43;;;;;;;0.10;0.10;;;8.30;99.90;;;;;;5046337;28;20046;-77
2023/11/03 10:35:11;;;;;;;0.00;0.00;;;8.40;99.90;;;;;;5067439;28;20024;-77
2023/11/03 10:37:38;;;;;;;0.30;0.30;;;8.40;99.90;;;;;;5064130;28;20491;-78
2023/11/03 10:40:04;;;;;;;;;;;8.30;99.90;;;;;;5074059;28;20031;-79
2023/11/03 10:42:30;;;;;;;;;;;8.40;99.90;;;;;;5061107;28;19973;-79
2023/11/03 10:45:05;;;;;;;0.10;0.10;;;8.60;99.90;;;;;;5078956;28;19942;-78
2023/11/03 10:47:34;;;;;;;0.10;0.10;;;8.80;99.90;;;;;;5083382;28;20028;-79
2023/11/03 10:50:06;;;;;;;0.10;0.10;;;8.90;99.90;;;;;;5069174;28;20565;-77
2023/11/03 10:52:45;;;;;;;1.95;1.85;;;8.80;99.90;;;;;;5064357;28;20028;-78
2023/11/03 10:55:14;;;;;;;0.08;0.08;;;8.90;99.90;;;;;;5076171;28;20035;-78
2023/11/03 10:57:41;;;;;;;0.10;0.10;;;9.00;99.90;;;;;;5055768;28;20554;-77
2023/11/03 11:00:21;;;;;;;0.10;0.10;;;9.00;99.90;;;;;;5077711;28;20051;-79
2023/11/03 11:03:23;;;;;;;0.10;0.10;;;9.10;99.90;;;;;;5094229;28;20058;-77
2023/11/03 11:06:07;;;;;;;1.38;1.27;;;9.20;99.90;;;;;;5085288;28;20027;-79
2023/11/03 11:08:35;;;;;;;0.00;0.00;;;9.20;99.90;;;;;;5089802;28;20560;-78
2023/11/03 11:11:02;;;;;;;0.73;0.73;;;9.20;99.90;;;;;;5085117;28;20075;-77
2023/11/03 11:13:28;;;;;;;0.10;0.10;;;9.10;99.90;;;;;;5090821;28;20020;-77
2023/11/03 11:15:57;;;;;;;0.10;0.10;;;9.10;99.90;;;;;;5084638;28;20381;-78
2023/11/03 11:18:33;;;;;;;0.10;0.10;;;9.20;99.90;;;;;;5088418;28;20103;-79
2023/11/03 11:21:06;;;;;;;0.00;0.00;;;9.40;99.90;;;;;;5083907;28;20032;-78
2023/11/03 11:23:36;;;;;;;0.85;0.85;;;9.30;99.90;;;;;;5088480;28;20557;-77
2023/11/03 11:26:02;;;;;;;0.10;0.10;;;9.20;99.90;;;;;;5086313;28;20625;-77
2023/11/03 11:28:38;;;;;;;0.50;0.50;;;9.20;99.90;;;;;;5085546;28;20051;-77
2023/11/03 11:31:24;;;;;;;0.10;0.10;;;9.20;99.90;;;;;;5084294;28;20081;-77
2023/11/03 11:34:17;;;;;;;0.10;0.10;;;8.90;99.90;;;;;;5090203;28;20851;-77
2023/11/03 11:36:43;;;;;;;0.10;0.10;;;8.80;99.90;;;;;;5085592;28;20032;-79
2023/11/03 11:39:15;;;;;;;0.00;0.00;;;8.60;99.90;;;;;;5084744;28;20020;-77
2023/11/03 11:41:50;;;;;;;0.20;0.20;;;8.50;99.90;;;;;;5094816;28;20092;-78
2023/11/03 11:44:21;;;;;;;0.10;0.10;;;8.50;99.90;;;;;;5082927;28;20069;-78
2023/11/03 11:46:58;;;;;;;0.10;0.10;;;8.50;99.90;;;;;;5083870;28;20032;-78
2023/11/03 11:49:27;;;;;;;0.10;0.10;;;8.60;99.90;;;;;;5083649;28;20077;-78
2023/11/03 11:51:55;;;;;;;0.10;0.10;;;8.60;99.90;;;;;;5085965;28;20104;-77
2023/11/03 11:54:22;;;;;;;0.03;0.03;;;8.70;99.90;;;;;;5091026;28;20024;-79
2023/11/03 11:56:49;;;;;;;0.10;0.10;;;8.70;99.90;;;;;;5086749;28;20093;-77
2023/11/03 11:59:17;;;;;;;0.10;0.10;;;8.70;99.90;;;;;;5084757;28;20410;-77
2023/11/03 12:01:43;;;;;;;0.13;0.13;;;8.50;99.90;;;;;;5093144;28;20028;-78
2023/11/03 12:04:12;;;;;;;0.03;0.03;;;8.50;99.90;;;;;;5086402;28;20044;-78
2023/11/03 12:06:40;;;;;;;0.03;0.03;;;8.60;99.90;;;;;;5089874;28;20138;-78
2023/11/03 12:09:06;;;;;;;0.20;0.10;;;8.70;99.90;;;;;;5088988;28;20024;-78
2023/11/03 12:11:33;;;;;;;0.15;0.15;;;8.80;99.90;;;;;;5087369;28;20127;-78
2023/11/03 12:13:59;;;;;;;0.00;0.00;;;8.90;99.90;;;;;;5087694;28;20052;-78
2023/11/03 12:16:26;;;;;;;0.03;0.03;;;9.00;99.90;;;;;;5087383;28;20553;-79
2023/11/03 12:18:53;;;;;;;0.08;0.08;;;9.10;99.90;;;;;;5102007;28;20778;-77
2023/11/03 12:21:20;;;;;;;0.17;0.17;;;9.50;99.90;;;;;;5088203;28;20059;-79
2023/11/03 12:23:47;;;;;;;0.20;0.20;;;9.80;99.90;;;;;;5102385;28;20049;-79
2023/11/03 12:26:12;;;;;;;0.10;0.10;;;10.30;99.90;;;;;;5092204;28;20020;-78
2023/11/03 12:28:40;;;;;;;0.00;0.00;;;10.10;99.90;;;;;;5086670;28;20258;-79
2023/11/03 12:31:06;;;;;;;0.08;0.08;;;9.80;99.90;;;;;;5093867;28;20093;-78
2023/11/03 12:33:34;;;;;;;0.10;0.10;;;9.50;99.90;;;;;;5087097;28;20024;-77
2023/11/03 12:36:00;;;;;;;0.05;0.05;;;9.80;99.90;;;;;;5094037;28;20513;-79
2023/11/03 12:38:26;;;;;;;0.00;0.00;;;10.10;99.90;;;;;;5100401;28;20521;-78
2023/11/03 12:41:13;;;;;;;0.10;0.10;;;9.90;99.90;;;;;;5096472;28;20119;-77
2023/11/03 12:43:40;;;;;;;0.10;0.10;;;9.80;99.90;;;;;;5102832;28;20031;-78
2023/11/03 12:46:08;;;;;;;;;;;9.60;99.90;;;;;;5095655;28;20023;-79
2023/11/03 12:48:34;;;;;;;0.10;0.10;;;9.60;99.90;;;;;;5091758;28;19912;-77
2023/11/03 12:51:00;;;;;;;0.00;0.00;;;9.80;99.90;;;;;;5087235;28;20016;-77
2023/11/03 12:53:26;;;;;;;0.10;0.10;;;10.10;99.90;;;;;;5088567;28;20043;-78
2023/11/03 12:56:04;;;;;;;0.00;0.00;;;10.20;99.90;;;;;;5086717;28;20356;-77